Time;durP1;ratioP1;P1;durP2;ratioP2;P2;SDS_P1;SDS_P2;PMS_P1;PMS_P2;Temp;Humidity;BMP_temperature;BMP_pressure;BME280_temperature;BME280_humidity;BME280_pressure;Samples;Min_cycle;Max_cycle;Signal;HPM_P1;HPM_P2
2023/05/28 00:00:44;;;;;;;7.43;2.55;;;;;;;;;;4992489;28;20033;-81
2023/05/28 00:03:10;;;;;;;2.67;2.33;;;;;;;;;;4976472;28;20073;-82
2023/05/28 00:05:36;;;;;;;4.20;2.80;;;;;;;;;;4976055;28;20069;-82
2023/05/28 00:08:02;;;;;;;5.75;2.20;;;;;;;;;;4977649;28;20153;-81
2023/05/28 00:10:28;;;;;;;3.63;2.13;;;;;;;;;;4992354;28;20092;-81
2023/05/28 00:12:54;;;;;;;2.95;2.35;;;;;;;;;;4991614;28;20049;-82
2023/05/28 00:15:21;;;;;;;3.17;2.17;;;;;;;;;;4993564;28;20057;-82
2023/05/28 00:17:47;;;;;;;3.42;2.03;;;;;;;;;;4975606;28;20045;-81
2023/05/28 00:20:13;;;;;;;4.38;2.30;;;;;;;;;;4992290;28;20042;-80
2023/05/28 00:22:39;;;;;;;5.85;3.00;;;;;;;;;;4993032;28;20046;-81
2023/05/28 00:25:06;;;;;;;3.47;2.30;;;;;;;;;;4975416;28;20054;-81
2023/05/28 00:27:32;;;;;;;3.35;3.00;;;;;;;;;;4992925;28;20515;-81
2023/05/28 00:29:58;;;;;;;5.43;2.75;;;;;;;;;;4991956;28;20082;-80
2023/05/28 00:32:24;;;;;;;3.45;2.67;;;;;;;;;;4991552;28;20042;-80
2023/05/28 00:34:50;;;;;;;5.00;3.05;;;;;;;;;;4975993;28;20034;-81
2023/05/28 00:37:16;;;;;;;5.03;2.85;;;;;;;;;;4975270;28;20048;-81
2023/05/28 00:39:42;;;;;;;2.78;2.58;;;;;;;;;;4975768;28;20195;-81
2023/05/28 00:42:10;;;;;;;5.47;2.95;;;;;;;;;;4974769;28;20052;-80
2023/05/28 00:44:39;;;;;;;3.90;2.50;;;;;;;;;;4992737;28;20034;-81
2023/05/28 00:47:05;;;;;;;2.97;2.58;;;;;;;;;;4992690;28;20043;-79
2023/05/28 00:49:32;;;;;;;3.13;2.45;;;;;;;;;;4958560;28;20065;-80
2023/05/28 00:51:58;;;;;;;5.28;2.90;;;;;;;;;;4991682;28;20046;-80
2023/05/28 00:54:25;;;;;;;9.07;2.80;;;;;;;;;;4991699;28;20046;-80
2023/05/28 00:56:54;;;;;;;11.00;3.10;;;;;;;;;;4960534;28;20426;-82
2023/05/28 00:59:21;;;;;;;3.10;2.80;;;;;;;;;;4995159;28;20553;-83
2023/05/28 01:01:47;;;;;;;4.30;2.78;;;;;;;;;;4980239;28;20030;-83
2023/05/28 01:04:13;;;;;;;3.38;2.78;;;;;;;;;;5011932;28;20050;-82
2023/05/28 01:06:39;;;;;;;3.00;2.80;;;;;;;;;;5013227;28;20041;-80
2023/05/28 01:09:05;;;;;;;3.70;3.08;;;;;;;;;;5012620;28;20089;-80
2023/05/28 01:11:31;;;;;;;4.82;2.80;;;;;;;;;;5021820;28;20033;-81
2023/05/28 01:13:57;;;;;;;9.18;3.22;;;;;;;;;;4989003;28;20056;-81
2023/05/28 01:16:23;;;;;;;6.28;2.55;;;;;;;;;;4979524;28;20041;-81
2023/05/28 01:18:49;;;;;;;3.25;2.95;;;;;;;;;;5011784;28;20050;-80
2023/05/28 01:21:15;;;;;;;3.08;2.25;;;;;;;;;;4994025;28;20061;-81
2023/05/28 01:23:45;;;;;;;7.18;2.75;;;;;;;;;;5010795;28;20472;-81
2023/05/28 01:26:12;;;;;;;5.47;2.38;;;;;;;;;;5010866;28;20048;-80
2023/05/28 01:28:43;;;;;;;3.90;2.88;;;;;;;;;;4977296;28;20229;-77
2023/05/28 01:31:10;;;;;;;5.10;2.97;;;;;;;;;;4992594;28;20578;-77
2023/05/28 01:33:36;;;;;;;3.53;2.53;;;;;;;;;;4992846;28;20045;-77
2023/05/28 01:36:03;;;;;;;5.43;3.00;;;;;;;;;;5009050;28;20107;-78
2023/05/28 01:38:29;;;;;;;2.83;2.63;;;;;;;;;;5010426;28;20054;-77
2023/05/28 01:40:55;;;;;;;3.53;2.78;;;;;;;;;;4992661;28;20033;-77
2023/05/28 01:43:21;;;;;;;4.43;2.92;;;;;;;;;;4976550;28;20069;-77
2023/05/28 01:45:47;;;;;;;4.22;2.95;;;;;;;;;;4992797;28;20044;-78
2023/05/28 01:48:12;;;;;;;2.83;2.42;;;;;;;;;;4992371;28;20584;-77
2023/05/28 01:50:40;;;;;;;3.45;2.75;;;;;;;;;;4994104;28;20038;-82
2023/05/28 01:53:06;;;;;;;3.08;2.72;;;;;;;;;;4981236;28;20553;-81
2023/05/28 01:55:32;;;;;;;2.50;2.30;;;;;;;;;;4980636;28;20053;-80
2023/05/28 01:57:59;;;;;;;9.05;3.22;;;;;;;;;;5015450;28;20115;-80
2023/05/28 02:00:26;;;;;;;5.05;2.88;;;;;;;;;;4999308;28;20061;-81
2023/05/28 02:02:53;;;;;;;4.85;2.88;;;;;;;;;;5014724;28;20042;-81
2023/05/28 02:05:20;;;;;;;7.28;2.90;;;;;;;;;;4979590;28;20038;-81
2023/05/28 02:07:48;;;;;;;3.20;2.60;;;;;;;;;;5013692;28;20135;-81
2023/05/28 02:10:14;;;;;;;7.22;2.70;;;;;;;;;;5012925;28;20053;-81
2023/05/28 02:12:40;;;;;;;4.18;2.60;;;;;;;;;;5000419;28;20554;-82
2023/05/28 02:15:07;;;;;;;4.38;2.65;;;;;;;;;;5016752;28;20070;-81
2023/05/28 02:17:33;;;;;;;2.90;2.70;;;;;;;;;;5000521;28;20044;-81
2023/05/28 02:20:19;;;;;;;3.03;2.40;;;;;;;;;;4988542;28;20069;-81
2023/05/28 02:22:46;;;;;;;6.90;2.63;;;;;;;;;;4999269;28;20042;-81
2023/05/28 02:25:12;;;;;;;3.30;2.50;;;;;;;;;;5017142;28;20046;-80
2023/05/28 02:27:38;;;;;;;5.43;2.55;;;;;;;;;;5001395;28;20122;-82
2023/05/28 02:30:05;;;;;;;3.63;2.63;;;;;;;;;;5019541;28;20100;-81
2023/05/28 02:32:32;;;;;;;12.88;2.92;;;;;;;;;;5019425;28;20042;-81
2023/05/28 02:34:59;;;;;;;3.33;2.80;;;;;;;;;;4999780;28;20054;-80
2023/05/28 02:37:25;;;;;;;2.70;2.50;;;;;;;;;;5019669;28;20041;-82
2023/05/28 02:39:52;;;;;;;7.25;2.22;;;;;;;;;;5020810;28;20256;-82
2023/05/28 02:42:18;;;;;;;2.88;2.50;;;;;;;;;;5003990;28;20077;-80
2023/05/28 02:44:44;;;;;;;9.40;2.30;;;;;;;;;;5002869;28;20030;-81
2023/05/28 02:47:10;;;;;;;3.70;2.45;;;;;;;;;;4987353;28;20052;-82
2023/05/28 02:49:37;;;;;;;3.85;2.97;;;;;;;;;;5003009;28;20050;-82
2023/05/28 02:52:03;;;;;;;6.50;2.70;;;;;;;;;;5004699;28;20049;-82
2023/05/28 02:54:35;;;;;;;3.13;2.00;;;;;;;;;;5033965;28;20052;-82
2023/05/28 02:57:02;;;;;;;2.83;2.00;;;;;;;;;;5033263;28;20046;-81
2023/05/28 02:59:28;;;;;;;2.75;2.50;;;;;;;;;;5008119;28;20108;-81
2023/05/28 03:01:55;;;;;;;4.13;2.33;;;;;;;;;;4987615;28;20040;-82
2023/05/28 03:04:20;;;;;;;3.03;2.50;;;;;;;;;;5002129;28;20132;-82
2023/05/28 03:06:47;;;;;;;2.08;1.95;;;;;;;;;;4988238;28;20091;-81
2023/05/28 03:09:14;;;;;;;4.93;2.45;;;;;;;;;;4971137;28;20085;-81
2023/05/28 03:11:42;;;;;;;3.90;2.13;;;;;;;;;;5001848;28;20042;-82
2023/05/28 03:14:07;;;;;;;6.38;2.42;;;;;;;;;;4986319;28;20076;-81
2023/05/28 03:16:36;;;;;;;2.40;2.17;;;;;;;;;;5000392;28;20045;-82
2023/05/28 03:19:04;;;;;;;;;;;;;;;;;;4999535;28;20053;-82
2023/05/28 03:21:32;;;;;;;2.40;2.20;;;;;;;;;;4999448;28;20099;-82
2023/05/28 03:23:59;;;;;;;2.95;1.95;;;;;;;;;;5000732;28;20049;-82
2023/05/28 03:26:36;;;;;;;4.15;2.40;;;;;;;;;;5002610;28;20132;-81
2023/05/28 03:29:02;;;;;;;3.90;2.10;;;;;;;;;;5003354;28;20167;-81
2023/05/28 03:31:43;;;;;;;3.42;1.90;;;;;;;;;;5021318;28;20045;-83
2023/05/28 03:34:09;;;;;;;2.17;2.08;;;;;;;;;;5003788;28;20060;-81
2023/05/28 03:36:35;;;;;;;3.25;2.28;;;;;;;;;;5020687;28;20097;-82
2023/05/28 03:39:01;;;;;;;2.53;2.25;;;;;;;;;;5024553;28;20403;-83
2023/05/28 03:41:27;;;;;;;2.40;2.20;;;;;;;;;;5006346;28;20076;-82
2023/05/28 03:43:53;;;;;;;2.53;2.33;;;;;;;;;;4989182;28;20038;-82
2023/05/28 03:46:19;;;;;;;2.78;2.10;;;;;;;;;;4993282;28;20048;-82
2023/05/28 03:48:45;;;;;;;5.07;2.20;;;;;;;;;;5026398;28;20065;-81
2023/05/28 03:51:12;;;;;;;5.57;1.90;;;;;;;;;;5010785;28;20537;-83
2023/05/28 03:53:38;;;;;;;3.83;2.30;;;;;;;;;;5022053;28;20052;-83
2023/05/28 03:56:05;;;;;;;3.63;2.13;;;;;;;;;;5021567;28;20038;-82
2023/05/28 03:58:32;;;;;;;4.95;2.10;;;;;;;;;;5007070;28;20058;-82
2023/05/28 04:00:59;;;;;;;4.18;2.35;;;;;;;;;;4984278;28;20129;-83
2023/05/28 04:03:25;;;;;;;5.15;2.10;;;;;;;;;;4969323;28;20090;-82
2023/05/28 04:05:52;;;;;;;6.13;2.47;;;;;;;;;;5004204;28;20133;-83
2023/05/28 04:08:21;;;;;;;2.25;1.80;;;;;;;;;;5003559;28;20046;-83
2023/05/28 04:10:47;;;;;;;2.58;1.88;;;;;;;;;;5003889;28;20053;-81
2023/05/28 04:13:13;;;;;;;3.90;1.70;;;;;;;;;;4986013;28;20034;-82
2023/05/28 04:15:40;;;;;;;5.25;2.03;;;;;;;;;;5000489;28;20046;-83
2023/05/28 04:18:06;;;;;;;5.97;1.90;;;;;;;;;;4967306;28;20133;-81
2023/05/28 04:20:35;;;;;;;2.97;2.33;;;;;;;;;;5001942;28;20045;-83
2023/05/28 04:23:01;;;;;;;4.13;2.40;;;;;;;;;;4968422;28;20461;-83
2023/05/28 04:25:29;;;;;;;2.30;2.17;;;;;;;;;;4997100;28;20131;-82
2023/05/28 04:27:58;;;;;;;3.55;2.17;;;;;;;;;;5000792;28;20046;-82
2023/05/28 04:30:25;;;;;;;2.47;2.00;;;;;;;;;;4981210;28;20497;-81
2023/05/28 04:32:51;;;;;;;5.32;2.25;;;;;;;;;;4997923;28;20042;-83
2023/05/28 04:35:17;;;;;;;3.67;2.25;;;;;;;;;;4999906;28;20090;-83
2023/05/28 04:37:44;;;;;;;5.13;2.20;;;;;;;;;;5002742;28;20518;-83
2023/05/28 04:40:11;;;;;;;5.35;2.08;;;;;;;;;;5013283;28;20074;-82
2023/05/28 04:42:41;;;;;;;3.00;2.70;;;;;;;;;;5005842;28;20096;-82
2023/05/28 04:45:08;;;;;;;2.55;2.30;;;;;;;;;;4986834;28;20049;-81
2023/05/28 04:47:34;;;;;;;3.35;2.40;;;;;;;;;;4970030;28;20047;-83
2023/05/28 04:50:01;;;;;;;3.67;2.20;;;;;;;;;;5002779;28;20061;-83
2023/05/28 04:52:27;;;;;;;6.13;2.70;;;;;;;;;;4986048;28;20039;-82
2023/05/28 04:54:53;;;;;;;3.30;2.35;;;;;;;;;;4971554;28;20054;-84
2023/05/28 04:57:20;;;;;;;2.67;2.22;;;;;;;;;;5007079;28;20131;-83
2023/05/28 04:59:46;;;;;;;4.50;2.30;;;;;;;;;;5003418;28;20048;-79
2023/05/28 05:02:12;;;;;;;3.17;2.30;;;;;;;;;;5022320;28;20072;-84
2023/05/28 05:04:39;;;;;;;3.33;2.67;;;;;;;;;;5020941;28;20046;-83
2023/05/28 05:07:05;;;;;;;3.15;2.40;;;;;;;;;;4985277;28;20050;-83
2023/05/28 05:09:31;;;;;;;6.35;2.55;;;;;;;;;;5001702;28;20054;-82
2023/05/28 05:11:57;;;;;;;8.75;2.60;;;;;;;;;;4982384;28;20088;-83
2023/05/28 05:14:24;;;;;;;9.05;2.70;;;;;;;;;;5017532;28;20090;-81
2023/05/28 05:16:50;;;;;;;5.05;2.40;;;;;;;;;;5002422;28;20038;-82
2023/05/28 05:19:16;;;;;;;2.67;2.47;;;;;;;;;;4984162;28;20204;-81
2023/05/28 05:21:42;;;;;;;2.70;2.53;;;;;;;;;;5016499;28;20090;-83
2023/05/28 05:24:08;;;;;;;3.08;2.80;;;;;;;;;;4999101;28;20069;-82
2023/05/28 05:26:33;;;;;;;4.97;2.95;;;;;;;;;;5001096;28;20033;-81
2023/05/28 05:28:59;;;;;;;3.00;2.80;;;;;;;;;;5002133;28;20054;-83
2023/05/28 05:31:26;;;;;;;2.95;2.67;;;;;;;;;;5002225;28;20049;-83
2023/05/28 05:33:53;;;;;;;3.35;2.55;;;;;;;;;;4986534;28;20141;-83
2023/05/28 05:36:58;;;;;;;3.47;2.70;;;;;;;;;;4958998;29;20051;-83
2023/05/28 05:39:55;;;;;;;4.00;2.90;;;;;;;;;;4976218;28;20074;-82
2023/05/28 05:42:53;;;;;;;3.70;2.72;;;;;;;;;;4969837;28;20073;-82
2023/05/28 05:45:19;;;;;;;5.22;2.75;;;;;;;;;;5003918;28;20042;-83
2023/05/28 05:47:45;;;;;;;2.80;2.15;;;;;;;;;;5004134;28;20050;-83
2023/05/28 05:50:14;;;;;;;5.60;2.20;;;;;;;;;;5000086;28;20058;-83
2023/05/28 05:52:42;;;;;;;3.38;2.58;;;;;;;;;;5017601;28;20042;-83
2023/05/28 05:55:08;;;;;;;3.03;2.42;;;;;;;;;;5006454;28;20685;-83
2023/05/28 05:57:36;;;;;;;3.70;2.47;;;;;;;;;;5028061;28;20088;-83
2023/05/28 06:00:06;;;;;;;4.25;2.70;;;;;;;;;;5008922;28;20046;-84
2023/05/28 06:02:39;;;;;;;2.97;2.78;;;;;;;;;;5004802;28;20048;-84
2023/05/28 06:05:26;;;;;;;3.53;2.80;;;;;;;;;;5012272;28;20061;-79
2023/05/28 06:08:10;;;;;;;3.03;2.67;;;;;;;;;;5010154;28;20057;-80
2023/05/28 06:10:48;;;;;;;2.58;2.20;;;;;;;;;;4994269;28;20526;-79
2023/05/28 06:13:14;;;;;;;7.22;3.42;;;;;;;;;;4997639;28;20131;-79
2023/05/28 06:15:41;;;;;;;4.00;3.22;;;;;;;;;;4998687;28;20046;-80
2023/05/28 06:18:07;;;;;;;7.60;3.00;;;;;;;;;;4964493;28;20477;-78
2023/05/28 06:20:34;;;;;;;5.45;4.05;;;;;;;;;;4997044;28;20529;-79
2023/05/28 06:23:01;;;;;;;3.67;3.20;;;;;;;;;;4993429;28;20065;-79
2023/05/28 06:25:28;;;;;;;9.40;2.92;;;;;;;;;;4997015;28;20042;-79
2023/05/28 06:27:57;;;;;;;2.83;2.63;;;;;;;;;;5013959;28;20104;-79
2023/05/28 06:30:23;;;;;;;5.57;2.42;;;;;;;;;;4996018;28;20046;-79
2023/05/28 06:32:49;;;;;;;5.07;2.80;;;;;;;;;;4996026;28;20041;-80
2023/05/28 06:35:15;;;;;;;12.00;3.28;;;;;;;;;;4979560;28;20056;-77
2023/05/28 06:37:41;;;;;;;4.45;2.78;;;;;;;;;;5013750;28;20513;-79
2023/05/28 06:40:09;;;;;;;3.75;3.20;;;;;;;;;;4979391;28;20084;-78
2023/05/28 06:42:35;;;;;;;10.55;2.90;;;;;;;;;;4979538;28;20061;-79
2023/05/28 06:45:20;;;;;;;2.80;2.50;;;;;;;;;;4995573;28;20045;-79
2023/05/28 06:47:46;;;;;;;2.85;2.60;;;;;;;;;;5013240;28;20046;-80
2023/05/28 06:50:12;;;;;;;5.60;3.08;;;;;;;;;;4995698;28;20128;-80
2023/05/28 06:52:38;;;;;;;6.80;2.67;;;;;;;;;;4979639;28;20612;-81
2023/05/28 06:55:05;;;;;;;6.22;3.22;;;;;;;;;;5013521;28;20050;-81
2023/05/28 06:57:33;;;;;;;6.05;2.90;;;;;;;;;;4988347;28;20057;-80
2023/05/28 07:00:25;;;;;;;4.38;3.20;;;;;;;;;;4991850;28;20140;-80
2023/05/28 07:03:23;;;;;;;4.00;3.03;;;;;;;;;;4969549;28;20050;-81
2023/05/28 07:06:24;;;;;;;;;;;;;;;;;;4970875;28;20056;-80
2023/05/28 07:08:50;;;;;;;5.50;3.45;;;;;;;;;;4976154;28;20606;-80
2023/05/28 07:11:17;;;;;;;7.57;5.45;;;;;;;;;;4993524;28;20127;-80
2023/05/28 07:13:46;;;;;;;7.15;4.55;;;;;;;;;;4960511;28;20053;-80
2023/05/28 07:16:12;;;;;;;9.05;5.53;;;;;;;;;;4975828;28;20040;-80
2023/05/28 07:18:38;;;;;;;5.30;4.40;;;;;;;;;;4959721;28;20065;-80
2023/05/28 07:21:05;;;;;;;4.00;3.40;;;;;;;;;;4991754;28;20042;-81
2023/05/28 07:23:42;;;;;;;4.00;3.20;;;;;;;;;;4974732;28;20145;-81
2023/05/28 07:26:08;;;;;;;6.85;3.22;;;;;;;;;;4975426;28;20414;-80
2023/05/28 07:28:35;;;;;;;6.28;3.38;;;;;;;;;;4975572;28;20046;-80
2023/05/28 07:31:01;;;;;;;3.45;3.15;;;;;;;;;;4975545;28;20045;-81
2023/05/28 07:33:27;;;;;;;3.65;3.03;;;;;;;;;;4991506;28;20046;-80
2023/05/28 07:35:53;;;;;;;3.25;3.00;;;;;;;;;;4992838;28;20046;-81
2023/05/28 07:38:20;;;;;;;5.57;3.00;;;;;;;;;;4992436;28;20086;-81
2023/05/28 07:40:49;;;;;;;3.00;2.70;;;;;;;;;;4991197;28;20139;-80
2023/05/28 07:43:24;;;;;;;6.22;3.45;;;;;;;;;;4991221;28;20188;-81
2023/05/28 07:45:53;;;;;;;5.90;2.90;;;;;;;;;;4975113;28;20061;-81
2023/05/28 07:48:19;;;;;;;4.00;3.25;;;;;;;;;;4974885;28;20188;-81
2023/05/28 07:51:01;;;;;;;3.20;3.00;;;;;;;;;;4992481;28;20046;-80
2023/05/28 07:53:53;;;;;;;3.38;3.08;;;;;;;;;;4975931;28;20129;-79
2023/05/28 07:56:22;;;;;;;3.03;2.70;;;;;;;;;;4990658;28;20135;-79
2023/05/28 07:58:48;;;;;;;4.93;3.00;;;;;;;;;;4990804;28;20078;-78
2023/05/28 08:01:17;;;;;;;2.20;2.00;;;;;;;;;;4990580;28;20532;-78
2023/05/28 08:03:44;;;;;;;3.17;2.97;;;;;;;;;;4993349;28;20069;-77
2023/05/28 08:06:11;;;;;;;3.03;2.70;;;;;;;;;;4998773;28;20046;-77
2023/05/28 08:08:38;;;;;;;3.80;3.38;;;;;;;;;;4996050;28;20543;-78
2023/05/28 08:11:06;;;;;;;7.05;3.20;;;;;;;;;;4974839;28;20065;-80
2023/05/28 08:13:32;;;;;;;2.88;2.67;;;;;;;;;;4974560;28;20073;-82
2023/05/28 08:16:00;;;;;;;2.90;2.70;;;;;;;;;;4990773;28;20054;-80
2023/05/28 08:18:32;;;;;;;4.68;2.80;;;;;;;;;;4957958;28;20046;-80
2023/05/28 08:20:58;;;;;;;3.45;3.15;;;;;;;;;;4958549;28;20521;-80
2023/05/28 08:23:24;;;;;;;4.10;3.03;;;;;;;;;;4991727;28;20461;-80
2023/05/28 08:25:52;;;;;;;4.07;3.78;;;;;;;;;;4990616;28;20050;-81
2023/05/28 08:28:24;;;;;;;7.38;5.63;;;;;;;;;;4990881;28;20046;-84
2023/05/28 08:30:50;;;;;;;5.15;4.68;;;;;;;;;;4993470;28;20050;-82
2023/05/28 08:33:25;;;;;;;9.88;3.75;;;;;;;;;;4975325;28;20051;-82
2023/05/28 08:35:51;;;;;;;4.38;2.88;;;;;;;;;;4990951;28;20057;-82
2023/05/28 08:38:17;;;;;;;6.65;3.22;;;;;;;;;;4990266;28;20050;-83
2023/05/28 08:40:53;;;;;;;5.13;3.15;;;;;;;;;;4958760;28;20042;-82
2023/05/28 08:43:19;;;;;;;2.50;2.35;;;;;;;;;;4959704;28;20069;-83
2023/05/28 08:45:46;;;;;;;3.10;2.90;;;;;;;;;;4991409;28;20053;-81
2023/05/28 08:48:13;;;;;;;4.07;2.90;;;;;;;;;;4975106;28;20085;-83
2023/05/28 08:50:40;;;;;;;2.30;2.20;;;;;;;;;;4975179;28;20148;-82
2023/05/28 08:53:13;;;;;;;2.70;2.50;;;;;;;;;;4974905;28;20049;-81
2023/05/28 08:55:40;;;;;;;3.15;2.78;;;;;;;;;;4958252;28;20054;-81
2023/05/28 08:58:19;;;;;;;2.30;2.20;;;;;;;;;;4959812;28;20050;-81
2023/05/28 09:00:47;;;;;;;3.50;2.35;;;;;;;;;;4990456;28;20608;-81
2023/05/28 09:03:49;;;;;;;2.70;2.50;;;;;;;;;;4931693;29;20054;-82
2023/05/28 09:06:24;;;;;;;3.40;2.42;;;;;;;;;;4952363;28;20045;-81
2023/05/28 09:08:52;;;;;;;2.72;2.40;;;;;;;;;;4989846;28;20104;-79
2023/05/28 09:11:32;;;;;;;2.33;2.22;;;;;;;;;;4959120;28;20038;-80
2023/05/28 09:13:59;;;;;;;3.17;2.47;;;;;;;;;;4989780;28;20053;-80
2023/05/28 09:16:25;;;;;;;2.55;2.35;;;;;;;;;;4973428;28;20489;-79
2023/05/28 09:19:04;;;;;;;3.50;2.75;;;;;;;;;;4973507;28;20050;-78
2023/05/28 09:21:36;;;;;;;2.83;2.63;;;;;;;;;;4989530;28;20038;-78
2023/05/28 09:24:05;;;;;;;3.38;3.17;;;;;;;;;;4973863;28;20103;-77
2023/05/28 09:26:34;;;;;;;4.05;3.60;;;;;;;;;;4990989;28;20165;-77
2023/05/28 09:29:18;;;;;;;4.10;3.80;;;;;;;;;;4990474;28;20104;-77
2023/05/28 09:31:44;;;;;;;6.72;3.90;;;;;;;;;;4960001;28;20530;-79
2023/05/28 09:34:10;;;;;;;3.80;3.50;;;;;;;;;;4960796;28;20545;-79
2023/05/28 09:36:37;;;;;;;4.75;3.80;;;;;;;;;;4996866;28;20050;-79
2023/05/28 09:39:09;;;;;;;4.13;3.38;;;;;;;;;;5001384;28;20047;-78
2023/05/28 09:41:36;;;;;;;5.47;2.97;;;;;;;;;;5000013;28;20040;-79
2023/05/28 09:44:04;;;;;;;3.60;3.40;;;;;;;;;;4975244;28;20050;-80
2023/05/28 09:46:31;;;;;;;3.47;3.00;;;;;;;;;;4976929;28;20030;-78
2023/05/28 09:48:57;;;;;;;5.15;2.80;;;;;;;;;;4977133;28;20116;-79
2023/05/28 09:51:24;;;;;;;4.50;3.05;;;;;;;;;;4995731;28;20042;-80
2023/05/28 09:53:52;;;;;;;12.65;3.55;;;;;;;;;;4994919;28;20038;-79
2023/05/28 09:56:19;;;;;;;3.55;3.30;;;;;;;;;;4977344;28;20423;-79
2023/05/28 09:58:45;;;;;;;3.58;3.28;;;;;;;;;;4976806;28;20133;-79
2023/05/28 10:01:13;;;;;;;3.78;3.47;;;;;;;;;;4994492;28;20129;-79
2023/05/28 10:03:42;;;;;;;4.28;2.95;;;;;;;;;;4961076;28;20592;-81
2023/05/28 10:06:11;;;;;;;4.65;3.83;;;;;;;;;;4976971;28;20621;-79
2023/05/28 10:08:37;;;;;;;4.22;3.50;;;;;;;;;;4994262;28;20589;-81
2023/05/28 10:11:05;;;;;;;6.40;4.20;;;;;;;;;;4960817;28;20156;-81
2023/05/28 10:13:31;;;;;;;6.53;4.28;;;;;;;;;;4976557;28;20097;-80
2023/05/28 10:15:57;;;;;;;6.68;4.53;;;;;;;;;;4994154;28;20058;-80
2023/05/28 10:18:26;;;;;;;8.30;4.15;;;;;;;;;;4993750;28;20557;-81
2023/05/28 10:20:52;;;;;;;4.35;3.95;;;;;;;;;;4994232;28;20066;-81
2023/05/28 10:23:18;;;;;;;4.00;3.65;;;;;;;;;;4994085;28;20510;-81
2023/05/28 10:25:44;;;;;;;3.90;3.60;;;;;;;;;;4976565;28;20550;-81
2023/05/28 10:28:13;;;;;;;7.40;4.55;;;;;;;;;;4976466;28;20042;-81
2023/05/28 10:30:40;;;;;;;5.63;3.75;;;;;;;;;;4976702;28;20078;-81
2023/05/28 10:33:16;;;;;;;2.88;2.67;;;;;;;;;;4992657;28;20042;-81
2023/05/28 10:35:59;;;;;;;8.52;2.78;;;;;;;;;;4993931;28;20047;-81
2023/05/28 10:38:25;;;;;;;2.92;2.72;;;;;;;;;;4993481;28;20124;-82
2023/05/28 10:40:51;;;;;;;2.42;2.22;;;;;;;;;;4976591;28;20502;-81
2023/05/28 10:43:36;;;;;;;3.58;2.63;;;;;;;;;;4976605;28;20082;-81
2023/05/28 10:46:02;;;;;;;6.63;3.00;;;;;;;;;;4976157;28;20039;-79
2023/05/28 10:48:31;;;;;;;2.78;2.53;;;;;;;;;;4976594;28;20050;-81
2023/05/28 10:51:00;;;;;;;2.58;2.38;;;;;;;;;;4976747;28;20069;-81
2023/05/28 10:53:27;;;;;;;4.30;2.60;;;;;;;;;;4976410;28;20038;-81
2023/05/28 10:55:53;;;;;;;4.35;2.65;;;;;;;;;;4994165;28;20038;-81
2023/05/28 10:58:35;;;;;;;7.15;3.05;;;;;;;;;;5006076;28;20061;-80
2023/05/28 11:01:20;;;;;;;3.28;2.97;;;;;;;;;;4996285;28;20041;-81
2023/05/28 11:03:53;;;;;;;6.57;3.45;;;;;;;;;;4996484;28;20042;-82
2023/05/28 11:06:19;;;;;;;5.20;3.20;;;;;;;;;;4996257;28;20540;-81
2023/05/28 11:08:45;;;;;;;3.70;2.90;;;;;;;;;;4996074;28;20045;-82
2023/05/28 11:11:12;;;;;;;3.30;3.10;;;;;;;;;;4995938;28;20533;-82
2023/05/28 11:13:42;;;;;;;6.78;2.90;;;;;;;;;;5013004;28;20045;-81
2023/05/28 11:16:11;;;;;;;4.15;2.80;;;;;;;;;;5013030;28;20052;-82
2023/05/28 11:18:37;;;;;;;5.32;2.35;;;;;;;;;;5011729;28;20057;-82
2023/05/28 11:21:07;;;;;;;3.78;2.10;;;;;;;;;;4995877;28;20545;-81
2023/05/28 11:23:36;;;;;;;2.03;1.92;;;;;;;;;;5013103;28;20080;-81
2023/05/28 11:26:03;;;;;;;1.88;1.77;;;;;;;;;;4980034;28;20042;-82
2023/05/28 11:28:30;;;;;;;2.53;2.33;;;;;;;;;;4995400;28;20050;-81
2023/05/28 11:30:57;;;;;;;5.32;3.10;;;;;;;;;;5025879;28;20057;-83
2023/05/28 11:33:25;;;;;;;2.60;2.13;;;;;;;;;;5020607;28;20042;-82
2023/05/28 11:36:01;;;;;;;3.47;3.00;;;;;;;;;;5014168;28;20050;-82
2023/05/28 11:38:27;;;;;;;7.25;3.40;;;;;;;;;;4995386;28;20049;-82
2023/05/28 11:41:00;;;;;;;3.20;2.67;;;;;;;;;;5013870;28;20399;-82
2023/05/28 11:43:27;;;;;;;4.28;2.97;;;;;;;;;;5013866;28;20041;-82
2023/05/28 11:45:57;;;;;;;10.13;2.38;;;;;;;;;;4995941;28;20557;-83
2023/05/28 11:48:23;;;;;;;2.60;2.40;;;;;;;;;;4996112;28;20046;-82
2023/05/28 11:50:48;;;;;;;2.30;2.15;;;;;;;;;;4996005;28;20308;-82
2023/05/28 11:53:15;;;;;;;3.10;2.70;;;;;;;;;;4995876;28;20046;-83
2023/05/28 11:55:41;;;;;;;6.05;2.72;;;;;;;;;;5013189;28;20046;-82
2023/05/28 11:58:08;;;;;;;3.95;3.05;;;;;;;;;;5012208;28;20678;-84
2023/05/28 12:00:35;;;;;;;5.47;2.95;;;;;;;;;;5012412;28;20045;-82
2023/05/28 12:03:02;;;;;;;3.00;2.70;;;;;;;;;;5012383;28;20042;-82
2023/05/28 12:05:35;;;;;;;3.92;2.88;;;;;;;;;;5012357;28;20077;-81
2023/05/28 12:08:01;;;;;;;2.97;2.67;;;;;;;;;;5012460;28;20038;-82
2023/05/28 12:10:28;;;;;;;2.75;2.55;;;;;;;;;;4995583;28;20054;-82
2023/05/28 12:12:57;;;;;;;2.30;2.20;;;;;;;;;;5023695;28;20029;-82
2023/05/28 12:15:23;;;;;;;3.03;2.70;;;;;;;;;;5033574;28;20046;-82
2023/05/28 12:17:53;;;;;;;3.22;2.97;;;;;;;;;;5034601;28;20045;-82
2023/05/28 12:20:19;;;;;;;1.97;1.87;;;;;;;;;;4998936;28;20045;-81
2023/05/28 12:22:45;;;;;;;3.53;2.72;;;;;;;;;;5013686;28;20128;-81
2023/05/28 12:25:12;;;;;;;4.57;2.83;;;;;;;;;;4996835;28;20089;-75
2023/05/28 12:27:38;;;;;;;3.72;2.55;;;;;;;;;;5026821;28;20434;-74
2023/05/28 12:30:04;;;;;;;5.05;2.35;;;;;;;;;;5011646;28;20100;-75
2023/05/28 12:32:36;;;;;;;2.67;2.47;;;;;;;;;;5015122;28;20445;-74
2023/05/28 12:35:03;;;;;;;2.35;2.15;;;;;;;;;;5012772;28;20077;-74
2023/05/28 12:37:30;;;;;;;3.40;2.72;;;;;;;;;;5013102;28;20030;-74
2023/05/28 12:39:57;;;;;;;4.10;1.90;;;;;;;;;;5030053;28;20045;-75
2023/05/28 12:42:23;;;;;;;5.13;2.72;;;;;;;;;;5030752;28;20532;-74
2023/05/28 12:44:49;;;;;;;11.30;3.08;;;;;;;;;;5019648;28;20048;-75
2023/05/28 12:47:15;;;;;;;6.63;2.05;;;;;;;;;;5041162;28;20509;-73
2023/05/28 12:49:41;;;;;;;5.20;2.17;;;;;;;;;;5035401;28;20057;-75
2023/05/28 12:52:06;;;;;;;12.05;1.90;;;;;;;;;;5029730;28;20036;-74
2023/05/28 12:54:33;;;;;;;11.85;2.10;;;;;;;;;;5028022;28;20132;-74
2023/05/28 12:56:59;;;;;;;2.85;2.00;;;;;;;;;;5027821;28;20037;-74
2023/05/28 12:59:25;;;;;;;5.75;2.03;;;;;;;;;;5031219;28;20045;-78
2023/05/28 13:01:51;;;;;;;5.53;1.90;;;;;;;;;;4991574;28;20034;-77
2023/05/28 13:04:17;;;;;;;3.60;2.20;;;;;;;;;;4994610;28;20179;-78
2023/05/28 13:06:44;;;;;;;7.75;2.20;;;;;;;;;;4995552;28;20116;-78
2023/05/28 13:09:12;;;;;;;2.58;1.83;;;;;;;;;;5028517;28;20565;-78
2023/05/28 13:11:41;;;;;;;3.10;2.28;;;;;;;;;;5011548;28;20429;-77
2023/05/28 13:14:07;;;;;;;2.53;2.13;;;;;;;;;;5039937;28;20049;-78
2023/05/28 13:16:33;;;;;;;5.38;2.25;;;;;;;;;;4994337;28;20052;-78
2023/05/28 13:19:01;;;;;;;3.80;2.10;;;;;;;;;;5028460;28;20041;-77
2023/05/28 13:21:28;;;;;;;6.95;2.10;;;;;;;;;;5011115;28;20048;-78
2023/05/28 13:23:54;;;;;;;6.05;2.58;;;;;;;;;;5012047;28;20124;-78
2023/05/28 13:26:22;;;;;;;3.55;2.45;;;;;;;;;;4996137;28;20128;-77
2023/05/28 13:28:48;;;;;;;4.10;2.22;;;;;;;;;;5030005;28;20058;-77
2023/05/28 13:31:14;;;;;;;5.55;2.30;;;;;;;;;;5013006;28;20045;-78
2023/05/28 13:33:40;;;;;;;2.80;2.03;;;;;;;;;;5012330;28;20049;-77
2023/05/28 13:36:06;;;;;;;8.32;2.47;;;;;;;;;;5030134;28;20048;-77
2023/05/28 13:38:34;;;;;;;5.32;2.40;;;;;;;;;;4995843;28;20465;-76
2023/05/28 13:41:00;;;;;;;5.13;2.17;;;;;;;;;;5012468;28;20525;-77
2023/05/28 13:43:26;;;;;;;9.20;2.30;;;;;;;;;;5012223;28;20124;-77
2023/05/28 13:45:52;;;;;;;5.80;2.20;;;;;;;;;;5029902;28;20060;-77
2023/05/28 13:48:19;;;;;;;19.10;9.40;;;;;;;;;;5012201;28;20044;-77
2023/05/28 13:50:45;;;;;;;4.82;2.35;;;;;;;;;;5029806;28;20056;-76
2023/05/28 13:53:11;;;;;;;5.00;2.58;;;;;;;;;;5029795;28;20041;-76
2023/05/28 13:55:37;;;;;;;9.43;8.48;;;;;;;;;;5012022;28;20068;-76
2023/05/28 13:58:03;;;;;;;3.88;2.70;;;;;;;;;;5029585;28;20517;-76
2023/05/28 14:00:29;;;;;;;3.95;2.30;;;;;;;;;;5012117;28;20049;-76
2023/05/28 14:02:55;;;;;;;5.65;2.28;;;;;;;;;;4995528;28;20048;-77
2023/05/28 14:05:21;;;;;;;1.90;1.80;;;;;;;;;;5030048;28;20045;-77
2023/05/28 14:07:47;;;;;;;2.10;1.90;;;;;;;;;;4995759;28;20073;-77
2023/05/28 14:10:13;;;;;;;3.88;2.08;;;;;;;;;;5012158;28;20045;-77
2023/05/28 14:12:39;;;;;;;3.60;2.03;;;;;;;;;;5029431;28;20044;-77
2023/05/28 14:15:05;;;;;;;3.97;3.60;;;;;;;;;;5029720;28;20406;-77
2023/05/28 14:17:32;;;;;;;1.60;1.60;;;;;;;;;;5029456;28;20045;-77
2023/05/28 14:19:58;;;;;;;3.42;1.85;;;;;;;;;;5029411;28;20092;-77
2023/05/28 14:22:24;;;;;;;1.45;1.35;;;;;;;;;;4995724;28;20048;-77
2023/05/28 14:24:50;;;;;;;6.68;1.70;;;;;;;;;;5029218;28;20414;-78
2023/05/28 14:27:16;;;;;;;2.28;1.85;;;;;;;;;;5011865;28;20051;-77
2023/05/28 14:29:42;;;;;;;2.28;1.15;;;;;;;;;;5029169;28;20057;-77
2023/05/28 14:32:09;;;;;;;4.00;1.90;;;;;;;;;;5013474;28;20056;-77
2023/05/28 14:34:35;;;;;;;1.67;1.58;;;;;;;;;;5032867;28;20544;-77
2023/05/28 14:37:00;;;;;;;2.53;1.70;;;;;;;;;;5032987;28;20049;-77
2023/05/28 14:39:28;;;;;;;1.08;1.08;;;;;;;;;;5031856;28;20087;-77
2023/05/28 14:41:54;;;;;;;2.30;2.10;;;;;;;;;;5032673;28;20129;-76
2023/05/28 14:44:20;;;;;;;1.65;1.55;;;;;;;;;;5033159;28;20042;-76
2023/05/28 14:46:46;;;;;;;2.08;1.88;;;;;;;;;;5014925;28;20119;-77
2023/05/28 14:49:12;;;;;;;1.85;1.70;;;;;;;;;;5014929;28;20529;-77